sensor_id;sensor_type;location;lat;lon;timestamp;P1;durP1;ratioP1;P2;durP2;ratioP2
58384;SDS011;44185;47.844;8.966;2023-05-07T00:02:15;7.53;;;4.43;;
58384;SDS011;44185;47.844;8.966;2023-05-07T00:04:40;8.05;;;4.55;;
58384;SDS011;44185;47.844;8.966;2023-05-07T00:07:05;6.97;;;4.63;;
58384;SDS011;44185;47.844;8.966;2023-05-07T00:09:31;6.35;;;4.63;;
58384;SDS011;44185;47.844;8.966;2023-05-07T00:11:57;7.45;;;4.43;;
58384;SDS011;44185;47.844;8.966;2023-05-07T00:14:22;6.70;;;4.50;;
58384;SDS011;44185;47.844;8.966;2023-05-07T00:16:48;8.07;;;4.40;;
58384;SDS011;44185;47.844;8.966;2023-05-07T00:19:14;8.85;;;4.95;;
58384;SDS011;44185;47.844;8.966;2023-05-07T00:21:40;9.63;;;4.88;;
58384;SDS011;44185;47.844;8.966;2023-05-07T00:24:06;6.85;;;4.80;;
58384;SDS011;44185;47.844;8.966;2023-05-07T00:26:32;7.32;;;4.80;;
58384;SDS011;44185;47.844;8.966;2023-05-07T00:28:57;7.35;;;4.90;;
58384;SDS011;44185;47.844;8.966;2023-05-07T00:31:22;8.05;;;4.90;;
58384;SDS011;44185;47.844;8.966;2023-05-07T00:33:48;9.10;;;5.20;;
58384;SDS011;44185;47.844;8.966;2023-05-07T00:36:15;8.30;;;5.28;;
58384;SDS011;44185;47.844;8.966;2023-05-07T00:38:40;9.27;;;5.55;;
58384;SDS011;44185;47.844;8.966;2023-05-07T00:41:05;9.30;;;4.75;;
58384;SDS011;44185;47.844;8.966;2023-05-07T00:43:31;12.80;;;5.00;;
58384;SDS011;44185;47.844;8.966;2023-05-07T00:45:56;8.02;;;4.93;;
58384;SDS011;44185;47.844;8.966;2023-05-07T00:48:22;8.40;;;4.80;;
58384;SDS011;44185;47.844;8.966;2023-05-07T00:50:47;7.40;;;4.88;;
58384;SDS011;44185;47.844;8.966;2023-05-07T00:53:14;8.68;;;4.95;;
58384;SDS011;44185;47.844;8.966;2023-05-07T00:55:39;7.30;;;5.00;;
58384;SDS011;44185;47.844;8.966;2023-05-07T00:58:05;8.20;;;4.85;;
58384;SDS011;44185;47.844;8.966;2023-05-07T01:00:32;6.75;;;4.80;;
58384;SDS011;44185;47.844;8.966;2023-05-07T01:02:57;9.13;;;4.75;;
58384;SDS011;44185;47.844;8.966;2023-05-07T01:05:23;7.55;;;4.65;;
58384;SDS011;44185;47.844;8.966;2023-05-07T01:07:51;6.20;;;4.20;;
58384;SDS011;44185;47.844;8.966;2023-05-07T01:10:19;6.68;;;4.80;;
58384;SDS011;44185;47.844;8.966;2023-05-07T01:12:45;6.68;;;4.90;;
58384;SDS011;44185;47.844;8.966;2023-05-07T01:15:13;8.13;;;4.88;;
58384;SDS011;44185;47.844;8.966;2023-05-07T01:17:39;8.40;;;5.07;;
58384;SDS011;44185;47.844;8.966;2023-05-07T01:20:06;7.20;;;4.28;;
58384;SDS011;44185;47.844;8.966;2023-05-07T01:22:34;7.68;;;4.82;;
58384;SDS011;44185;47.844;8.966;2023-05-07T01:25:01;7.33;;;5.00;;
58384;SDS011;44185;47.844;8.966;2023-05-07T01:27:27;8.02;;;4.45;;
58384;SDS011;44185;47.844;8.966;2023-05-07T01:29:53;5.93;;;4.30;;
58384;SDS011;44185;47.844;8.966;2023-05-07T01:32:18;7.80;;;5.00;;
58384;SDS011;44185;47.844;8.966;2023-05-07T01:34:50;10.75;;;5.97;;
58384;SDS011;44185;47.844;8.966;2023-05-07T01:37:17;12.02;;;6.03;;
58384;SDS011;44185;47.844;8.966;2023-05-07T01:39:44;13.50;;;7.07;;
58384;SDS011;44185;47.844;8.966;2023-05-07T01:42:10;9.68;;;5.10;;
58384;SDS011;44185;47.844;8.966;2023-05-07T01:44:36;13.32;;;6.60;;
58384;SDS011;44185;47.844;8.966;2023-05-07T01:47:02;12.00;;;6.22;;
58384;SDS011;44185;47.844;8.966;2023-05-07T01:49:28;12.70;;;6.55;;
58384;SDS011;44185;47.844;8.966;2023-05-07T01:51:53;13.60;;;6.32;;
58384;SDS011;44185;47.844;8.966;2023-05-07T01:54:19;12.63;;;6.00;;
58384;SDS011;44185;47.844;8.966;2023-05-07T01:56:51;10.73;;;5.18;;
58384;SDS011;44185;47.844;8.966;2023-05-07T01:59:17;10.35;;;5.55;;
58384;SDS011;44185;47.844;8.966;2023-05-07T02:01:42;10.68;;;6.22;;
58384;SDS011;44185;47.844;8.966;2023-05-07T02:04:07;16.52;;;7.50;;
58384;SDS011;44185;47.844;8.966;2023-05-07T02:06:33;13.05;;;7.55;;
58384;SDS011;44185;47.844;8.966;2023-05-07T02:08:58;14.32;;;7.95;;
58384;SDS011;44185;47.844;8.966;2023-05-07T02:11:24;14.40;;;6.90;;
58384;SDS011;44185;47.844;8.966;2023-05-07T02:13:50;12.63;;;7.38;;
58384;SDS011;44185;47.844;8.966;2023-05-07T02:16:16;13.13;;;6.47;;
58384;SDS011;44185;47.844;8.966;2023-05-07T02:18:41;12.18;;;6.70;;
58384;SDS011;44185;47.844;8.966;2023-05-07T02:21:07;12.52;;;6.43;;
58384;SDS011;44185;47.844;8.966;2023-05-07T02:23:32;12.18;;;6.30;;
58384;SDS011;44185;47.844;8.966;2023-05-07T02:25:57;12.45;;;6.68;;
58384;SDS011;44185;47.844;8.966;2023-05-07T02:28:23;13.88;;;6.43;;
58384;SDS011;44185;47.844;8.966;2023-05-07T02:30:50;10.45;;;5.90;;
58384;SDS011;44185;47.844;8.966;2023-05-07T02:33:15;8.50;;;4.97;;
58384;SDS011;44185;47.844;8.966;2023-05-07T02:35:40;8.75;;;5.00;;
58384;SDS011;44185;47.844;8.966;2023-05-07T02:38:06;8.55;;;4.82;;
58384;SDS011;44185;47.844;8.966;2023-05-07T02:40:32;6.45;;;4.60;;
58384;SDS011;44185;47.844;8.966;2023-05-07T02:42:57;8.52;;;4.97;;
58384;SDS011;44185;47.844;8.966;2023-05-07T02:45:22;6.55;;;4.28;;
58384;SDS011;44185;47.844;8.966;2023-05-07T02:47:49;7.95;;;4.57;;
58384;SDS011;44185;47.844;8.966;2023-05-07T02:50:15;6.20;;;4.22;;
58384;SDS011;44185;47.844;8.966;2023-05-07T02:52:40;7.05;;;3.97;;
58384;SDS011;44185;47.844;8.966;2023-05-07T02:55:06;7.93;;;4.35;;
58384;SDS011;44185;47.844;8.966;2023-05-07T02:57:32;6.13;;;4.07;;
58384;SDS011;44185;47.844;8.966;2023-05-07T02:59:57;7.78;;;4.18;;
58384;SDS011;44185;47.844;8.966;2023-05-07T03:02:23;7.90;;;4.72;;
58384;SDS011;44185;47.844;8.966;2023-05-07T03:04:50;5.13;;;3.70;;
58384;SDS011;44185;47.844;8.966;2023-05-07T03:07:15;7.80;;;4.47;;
58384;SDS011;44185;47.844;8.966;2023-05-07T03:09:41;6.88;;;4.72;;
58384;SDS011;44185;47.844;8.966;2023-05-07T03:12:06;13.60;;;5.43;;
58384;SDS011;44185;47.844;8.966;2023-05-07T03:14:32;8.27;;;4.20;;
58384;SDS011;44185;47.844;8.966;2023-05-07T03:16:57;6.25;;;4.45;;
58384;SDS011;44185;47.844;8.966;2023-05-07T03:19:23;8.45;;;5.00;;
58384;SDS011;44185;47.844;8.966;2023-05-07T03:21:49;7.43;;;4.57;;
58384;SDS011;44185;47.844;8.966;2023-05-07T03:24:15;6.43;;;4.05;;
58384;SDS011;44185;47.844;8.966;2023-05-07T03:26:40;5.13;;;3.88;;
58384;SDS011;44185;47.844;8.966;2023-05-07T03:29:06;9.30;;;4.40;;
58384;SDS011;44185;47.844;8.966;2023-05-07T03:31:32;8.55;;;4.32;;
58384;SDS011;44185;47.844;8.966;2023-05-07T03:33:57;6.88;;;4.20;;
58384;SDS011;44185;47.844;8.966;2023-05-07T03:36:23;8.18;;;4.68;;
58384;SDS011;44185;47.844;8.966;2023-05-07T03:38:50;6.10;;;4.13;;
58384;SDS011;44185;47.844;8.966;2023-05-07T03:41:15;7.68;;;5.25;;
58384;SDS011;44185;47.844;8.966;2023-05-07T03:43:41;8.05;;;4.75;;
58384;SDS011;44185;47.844;8.966;2023-05-07T03:46:06;8.85;;;5.68;;
58384;SDS011;44185;47.844;8.966;2023-05-07T03:48:32;7.22;;;4.57;;
58384;SDS011;44185;47.844;8.966;2023-05-07T03:50:57;9.95;;;4.93;;
58384;SDS011;44185;47.844;8.966;2023-05-07T03:53:23;7.45;;;4.78;;
58384;SDS011;44185;47.844;8.966;2023-05-07T03:55:50;6.20;;;4.35;;
58384;SDS011;44185;47.844;8.966;2023-05-07T03:58:16;8.73;;;5.07;;
58384;SDS011;44185;47.844;8.966;2023-05-07T04:00:41;7.50;;;4.60;;
58384;SDS011;44185;47.844;8.966;2023-05-07T04:03:07;6.53;;;4.65;;
58384;SDS011;44185;47.844;8.966;2023-05-07T04:05:32;7.97;;;4.97;;
58384;SDS011;44185;47.844;8.966;2023-05-07T04:07:58;6.32;;;4.60;;
58384;SDS011;44185;47.844;8.966;2023-05-07T04:10:24;7.97;;;4.83;;
58384;SDS011;44185;47.844;8.966;2023-05-07T04:12:50;9.02;;;4.68;;
58384;SDS011;44185;47.844;8.966;2023-05-07T04:15:16;5.85;;;4.22;;
58384;SDS011;44185;47.844;8.966;2023-05-07T04:17:42;10.18;;;4.93;;
58384;SDS011;44185;47.844;8.966;2023-05-07T04:20:08;7.18;;;4.93;;
58384;SDS011;44185;47.844;8.966;2023-05-07T04:22:34;9.15;;;4.90;;
58384;SDS011;44185;47.844;8.966;2023-05-07T04:24:59;7.40;;;4.75;;
58384;SDS011;44185;47.844;8.966;2023-05-07T04:27:25;8.15;;;4.82;;
58384;SDS011;44185;47.844;8.966;2023-05-07T04:29:51;7.25;;;4.55;;
58384;SDS011;44185;47.844;8.966;2023-05-07T04:32:17;11.38;;;4.95;;
58384;SDS011;44185;47.844;8.966;2023-05-07T04:34:42;8.32;;;5.47;;
58384;SDS011;44185;47.844;8.966;2023-05-07T04:37:09;10.63;;;4.85;;
58384;SDS011;44185;47.844;8.966;2023-05-07T04:39:34;9.48;;;5.18;;
58384;SDS011;44185;47.844;8.966;2023-05-07T04:41:59;9.40;;;5.15;;
58384;SDS011;44185;47.844;8.966;2023-05-07T04:44:25;10.43;;;5.78;;
58384;SDS011;44185;47.844;8.966;2023-05-07T04:46:52;8.38;;;5.18;;
58384;SDS011;44185;47.844;8.966;2023-05-07T04:49:17;7.97;;;5.15;;
58384;SDS011;44185;47.844;8.966;2023-05-07T04:51:43;8.98;;;5.25;;
58384;SDS011;44185;47.844;8.966;2023-05-07T04:54:08;8.70;;;5.22;;
58384;SDS011;44185;47.844;8.966;2023-05-07T04:56:34;9.15;;;5.80;;
58384;SDS011;44185;47.844;8.966;2023-05-07T04:58:59;11.40;;;5.53;;
58384;SDS011;44185;47.844;8.966;2023-05-07T05:01:24;9.85;;;5.63;;
58384;SDS011;44185;47.844;8.966;2023-05-07T05:03:51;10.38;;;5.70;;
58384;SDS011;44185;47.844;8.966;2023-05-07T05:06:17;13.32;;;6.32;;
58384;SDS011;44185;47.844;8.966;2023-05-07T05:08:42;11.00;;;6.25;;
58384;SDS011;44185;47.844;8.966;2023-05-07T05:11:07;9.48;;;5.97;;
58384;SDS011;44185;47.844;8.966;2023-05-07T05:13:33;11.98;;;6.40;;
58384;SDS011;44185;47.844;8.966;2023-05-07T05:15:58;10.43;;;6.22;;
58384;SDS011;44185;47.844;8.966;2023-05-07T05:18:24;13.00;;;6.32;;
58384;SDS011;44185;47.844;8.966;2023-05-07T05:20:52;10.50;;;6.28;;
58384;SDS011;44185;47.844;8.966;2023-05-07T05:23:17;8.70;;;5.47;;
58384;SDS011;44185;47.844;8.966;2023-05-07T05:25:42;8.00;;;4.93;;
58384;SDS011;44185;47.844;8.966;2023-05-07T05:28:08;6.55;;;4.78;;
58384;SDS011;44185;47.844;8.966;2023-05-07T05:30:33;7.45;;;4.97;;
58384;SDS011;44185;47.844;8.966;2023-05-07T05:32:59;10.50;;;5.40;;
58384;SDS011;44185;47.844;8.966;2023-05-07T05:35:24;9.80;;;5.65;;
58384;SDS011;44185;47.844;8.966;2023-05-07T05:37:51;9.00;;;5.45;;
58384;SDS011;44185;47.844;8.966;2023-05-07T05:40:17;11.98;;;5.93;;
58384;SDS011;44185;47.844;8.966;2023-05-07T05:42:42;14.23;;;5.88;;
58384;SDS011;44185;47.844;8.966;2023-05-07T05:45:08;7.60;;;5.47;;
58384;SDS011;44185;47.844;8.966;2023-05-07T05:47:34;9.50;;;5.20;;
58384;SDS011;44185;47.844;8.966;2023-05-07T05:49:59;13.18;;;5.88;;
58384;SDS011;44185;47.844;8.966;2023-05-07T05:52:25;8.98;;;5.28;;
58384;SDS011;44185;47.844;8.966;2023-05-07T05:54:52;7.72;;;5.25;;
58384;SDS011;44185;47.844;8.966;2023-05-07T05:57:18;8.73;;;5.20;;
58384;SDS011;44185;47.844;8.966;2023-05-07T05:59:44;8.32;;;5.43;;
58384;SDS011;44185;47.844;8.966;2023-05-07T06:02:09;10.25;;;4.95;;
58384;SDS011;44185;47.844;8.966;2023-05-07T06:04:35;11.75;;;5.43;;
58384;SDS011;44185;47.844;8.966;2023-05-07T06:07:00;8.43;;;6.15;;
58384;SDS011;44185;47.844;8.966;2023-05-07T06:09:25;9.77;;;5.80;;
58384;SDS011;44185;47.844;8.966;2023-05-07T06:11:52;10.65;;;5.38;;
58384;SDS011;44185;47.844;8.966;2023-05-07T06:14:18;9.25;;;5.35;;
58384;SDS011;44185;47.844;8.966;2023-05-07T06:16:43;9.25;;;5.60;;
58384;SDS011;44185;47.844;8.966;2023-05-07T06:19:09;9.48;;;5.10;;
58384;SDS011;44185;47.844;8.966;2023-05-07T06:21:34;7.80;;;4.85;;
58384;SDS011;44185;47.844;8.966;2023-05-07T06:23:59;7.50;;;4.78;;
58384;SDS011;44185;47.844;8.966;2023-05-07T06:26:25;9.55;;;4.85;;
58384;SDS011;44185;47.844;8.966;2023-05-07T06:28:52;8.13;;;5.13;;
58384;SDS011;44185;47.844;8.966;2023-05-07T06:31:18;7.10;;;4.55;;
58384;SDS011;44185;47.844;8.966;2023-05-07T06:33:44;7.97;;;4.50;;
58384;SDS011;44185;47.844;8.966;2023-05-07T06:36:10;7.72;;;4.80;;
58384;SDS011;44185;47.844;8.966;2023-05-07T06:38:35;9.35;;;5.28;;
58384;SDS011;44185;47.844;8.966;2023-05-07T06:41:02;7.95;;;4.85;;
58384;SDS011;44185;47.844;8.966;2023-05-07T06:43:27;7.72;;;4.55;;
58384;SDS011;44185;47.844;8.966;2023-05-07T06:45:54;9.63;;;5.13;;
58384;SDS011;44185;47.844;8.966;2023-05-07T06:48:19;10.30;;;5.88;;
58384;SDS011;44185;47.844;8.966;2023-05-07T06:50:45;10.75;;;6.00;;
58384;SDS011;44185;47.844;8.966;2023-05-07T06:53:10;10.02;;;5.55;;
58384;SDS011;44185;47.844;8.966;2023-05-07T06:55:36;8.50;;;5.03;;
58384;SDS011;44185;47.844;8.966;2023-05-07T06:58:02;8.95;;;5.68;;
58384;SDS011;44185;47.844;8.966;2023-05-07T07:00:27;9.98;;;6.10;;
58384;SDS011;44185;47.844;8.966;2023-05-07T07:02:54;10.32;;;6.35;;
58384;SDS011;44185;47.844;8.966;2023-05-07T07:05:20;12.47;;;7.17;;
58384;SDS011;44185;47.844;8.966;2023-05-07T07:07:45;11.70;;;6.82;;
58384;SDS011;44185;47.844;8.966;2023-05-07T07:10:11;12.52;;;7.55;;
58384;SDS011;44185;47.844;8.966;2023-05-07T07:12:36;13.82;;;8.55;;
58384;SDS011;44185;47.844;8.966;2023-05-07T07:15:02;14.27;;;8.85;;
58384;SDS011;44185;47.844;8.966;2023-05-07T07:17:27;14.32;;;9.50;;
58384;SDS011;44185;47.844;8.966;2023-05-07T07:19:54;16.20;;;10.10;;
58384;SDS011;44185;47.844;8.966;2023-05-07T07:22:20;15.82;;;10.82;;
58384;SDS011;44185;47.844;8.966;2023-05-07T07:24:45;14.48;;;8.98;;
58384;SDS011;44185;47.844;8.966;2023-05-07T07:27:10;14.38;;;9.73;;
58384;SDS011;44185;47.844;8.966;2023-05-07T07:29:36;14.57;;;9.38;;
58384;SDS011;44185;47.844;8.966;2023-05-07T07:32:02;16.02;;;10.32;;
58384;SDS011;44185;47.844;8.966;2023-05-07T07:34:27;15.82;;;11.68;;
58384;SDS011;44185;47.844;8.966;2023-05-07T07:36:54;12.45;;;8.35;;
58384;SDS011;44185;47.844;8.966;2023-05-07T07:39:19;15.13;;;8.93;;
58384;SDS011;44185;47.844;8.966;2023-05-07T07:41:45;13.13;;;7.95;;
58384;SDS011;44185;47.844;8.966;2023-05-07T07:44:10;13.93;;;8.90;;
58384;SDS011;44185;47.844;8.966;2023-05-07T07:46:36;13.18;;;7.60;;
58384;SDS011;44185;47.844;8.966;2023-05-07T07:49:02;13.95;;;7.88;;
58384;SDS011;44185;47.844;8.966;2023-05-07T07:51:27;10.82;;;6.95;;
58384;SDS011;44185;47.844;8.966;2023-05-07T07:53:54;14.63;;;7.57;;
58384;SDS011;44185;47.844;8.966;2023-05-07T07:56:19;13.10;;;6.22;;
58384;SDS011;44185;47.844;8.966;2023-05-07T07:58:45;9.63;;;5.83;;
58384;SDS011;44185;47.844;8.966;2023-05-07T08:01:10;9.57;;;5.75;;
58384;SDS011;44185;47.844;8.966;2023-05-07T08:03:35;8.98;;;5.70;;
58384;SDS011;44185;47.844;8.966;2023-05-07T08:06:01;9.80;;;5.75;;
58384;SDS011;44185;47.844;8.966;2023-05-07T08:08:26;11.25;;;5.63;;
58384;SDS011;44185;47.844;8.966;2023-05-07T08:10:53;9.83;;;6.07;;
58384;SDS011;44185;47.844;8.966;2023-05-07T08:13:18;10.15;;;5.78;;
58384;SDS011;44185;47.844;8.966;2023-05-07T08:15:44;10.27;;;6.13;;
58384;SDS011;44185;47.844;8.966;2023-05-07T08:18:09;11.13;;;6.28;;
58384;SDS011;44185;47.844;8.966;2023-05-07T08:20:35;9.48;;;6.13;;
58384;SDS011;44185;47.844;8.966;2023-05-07T08:23:00;10.43;;;5.75;;
58384;SDS011;44185;47.844;8.966;2023-05-07T08:25:26;11.13;;;6.00;;
58384;SDS011;44185;47.844;8.966;2023-05-07T08:27:52;9.23;;;5.93;;
58384;SDS011;44185;47.844;8.966;2023-05-07T08:30:18;11.30;;;6.30;;
58384;SDS011;44185;47.844;8.966;2023-05-07T08:32:43;10.02;;;6.18;;
58384;SDS011;44185;47.844;8.966;2023-05-07T08:35:09;8.85;;;6.30;;
58384;SDS011;44185;47.844;8.966;2023-05-07T08:37:34;10.45;;;6.75;;
58384;SDS011;44185;47.844;8.966;2023-05-07T08:40:00;10.23;;;6.60;;
58384;SDS011;44185;47.844;8.966;2023-05-07T08:42:25;11.05;;;6.65;;
58384;SDS011;44185;47.844;8.966;2023-05-07T08:44:54;12.95;;;7.75;;
58384;SDS011;44185;47.844;8.966;2023-05-07T08:47:22;10.63;;;6.33;;
58384;SDS011;44185;47.844;8.966;2023-05-07T08:49:54;12.98;;;7.38;;
58384;SDS011;44185;47.844;8.966;2023-05-07T08:52:19;11.52;;;7.15;;
58384;SDS011;44185;47.844;8.966;2023-05-07T08:54:45;11.35;;;6.85;;
58384;SDS011;44185;47.844;8.966;2023-05-07T08:57:10;13.43;;;7.57;;
58384;SDS011;44185;47.844;8.966;2023-05-07T08:59:36;9.50;;;6.43;;
58384;SDS011;44185;47.844;8.966;2023-05-07T09:02:03;12.48;;;7.25;;
58384;SDS011;44185;47.844;8.966;2023-05-07T09:06:57;13.38;;;7.32;;
58384;SDS011;44185;47.844;8.966;2023-05-07T09:09:22;15.38;;;7.75;;
58384;SDS011;44185;47.844;8.966;2023-05-07T09:11:48;14.13;;;7.70;;
58384;SDS011;44185;47.844;8.966;2023-05-07T09:14:13;8.70;;;5.70;;
58384;SDS011;44185;47.844;8.966;2023-05-07T09:16:39;11.77;;;6.57;;
58384;SDS011;44185;47.844;8.966;2023-05-07T09:19:05;17.50;;;6.32;;
58384;SDS011;44185;47.844;8.966;2023-05-07T09:21:32;12.80;;;6.70;;
58384;SDS011;44185;47.844;8.966;2023-05-07T09:23:57;9.02;;;5.47;;
58384;SDS011;44185;47.844;8.966;2023-05-07T09:26:23;8.48;;;5.53;;
58384;SDS011;44185;47.844;8.966;2023-05-07T09:28:49;10.35;;;5.97;;
58384;SDS011;44185;47.844;8.966;2023-05-07T09:31:15;9.57;;;5.47;;
58384;SDS011;44185;47.844;8.966;2023-05-07T09:33:40;8.98;;;5.78;;
58384;SDS011;44185;47.844;8.966;2023-05-07T09:36:08;8.07;;;5.22;;
58384;SDS011;44185;47.844;8.966;2023-05-07T09:38:34;8.68;;;4.97;;
58384;SDS011;44185;47.844;8.966;2023-05-07T09:41:02;7.88;;;4.75;;
58384;SDS011;44185;47.844;8.966;2023-05-07T09:43:31;9.88;;;5.93;;
58384;SDS011;44185;47.844;8.966;2023-05-07T09:45:57;7.83;;;5.33;;
58384;SDS011;44185;47.844;8.966;2023-05-07T09:48:23;10.13;;;5.38;;
58384;SDS011;44185;47.844;8.966;2023-05-07T09:50:51;9.68;;;5.40;;
58384;SDS011;44185;47.844;8.966;2023-05-07T09:53:21;9.93;;;5.50;;
58384;SDS011;44185;47.844;8.966;2023-05-07T09:55:47;7.88;;;5.55;;
58384;SDS011;44185;47.844;8.966;2023-05-07T09:58:13;8.70;;;5.47;;
58384;SDS011;44185;47.844;8.966;2023-05-07T10:00:41;7.22;;;4.82;;
58384;SDS011;44185;47.844;8.966;2023-05-07T10:03:08;6.97;;;4.90;;
58384;SDS011;44185;47.844;8.966;2023-05-07T10:05:35;8.18;;;4.75;;
58384;SDS011;44185;47.844;8.966;2023-05-07T10:08:01;8.87;;;4.83;;
58384;SDS011;44185;47.844;8.966;2023-05-07T10:10:29;7.10;;;4.18;;
58384;SDS011;44185;47.844;8.966;2023-05-07T10:12:55;6.15;;;4.32;;
58384;SDS011;44185;47.844;8.966;2023-05-07T10:15:22;6.60;;;4.65;;
58384;SDS011;44185;47.844;8.966;2023-05-07T10:17:47;7.30;;;4.47;;
58384;SDS011;44185;47.844;8.966;2023-05-07T10:20:14;6.85;;;4.50;;
58384;SDS011;44185;47.844;8.966;2023-05-07T10:22:41;7.00;;;4.25;;
58384;SDS011;44185;47.844;8.966;2023-05-07T10:25:09;6.13;;;4.47;;
58384;SDS011;44185;47.844;8.966;2023-05-07T10:27:43;7.50;;;4.63;;
58384;SDS011;44185;47.844;8.966;2023-05-07T10:30:13;8.43;;;4.70;;
58384;SDS011;44185;47.844;8.966;2023-05-07T10:32:48;8.30;;;4.93;;
58384;SDS011;44185;47.844;8.966;2023-05-07T10:35:16;7.13;;;4.43;;
58384;SDS011;44185;47.844;8.966;2023-05-07T10:37:44;7.90;;;4.50;;
58384;SDS011;44185;47.844;8.966;2023-05-07T10:40:10;6.30;;;4.07;;
58384;SDS011;44185;47.844;8.966;2023-05-07T10:42:37;8.10;;;4.30;;
58384;SDS011;44185;47.844;8.966;2023-05-07T10:45:13;7.07;;;4.43;;
58384;SDS011;44185;47.844;8.966;2023-05-07T10:50:32;5.78;;;4.30;;
58384;SDS011;44185;47.844;8.966;2023-05-07T10:55:46;6.60;;;3.90;;
58384;SDS011;44185;47.844;8.966;2023-05-07T10:58:25;7.15;;;4.30;;
58384;SDS011;44185;47.844;8.966;2023-05-07T11:00:56;7.27;;;4.23;;
58384;SDS011;44185;47.844;8.966;2023-05-07T11:03:22;5.50;;;3.70;;
58384;SDS011;44185;47.844;8.966;2023-05-07T11:05:48;5.00;;;3.78;;
58384;SDS011;44185;47.844;8.966;2023-05-07T11:11:17;6.25;;;3.60;;
58384;SDS011;44185;47.844;8.966;2023-05-07T11:13:43;4.18;;;3.50;;
58384;SDS011;44185;47.844;8.966;2023-05-07T11:16:18;4.97;;;3.80;;
58384;SDS011;44185;47.844;8.966;2023-05-07T11:18:47;7.55;;;3.92;;
58384;SDS011;44185;47.844;8.966;2023-05-07T11:21:16;6.50;;;3.70;;
58384;SDS011;44185;47.844;8.966;2023-05-07T11:24:00;6.68;;;3.75;;
58384;SDS011;44185;47.844;8.966;2023-05-07T11:26:30;6.75;;;3.70;;
58384;SDS011;44185;47.844;8.966;2023-05-07T11:29:08;4.37;;;3.70;;
58384;SDS011;44185;47.844;8.966;2023-05-07T11:31:37;7.18;;;3.88;;
58384;SDS011;44185;47.844;8.966;2023-05-07T11:34:03;8.98;;;4.18;;
58384;SDS011;44185;47.844;8.966;2023-05-07T11:36:30;6.80;;;3.67;;
58384;SDS011;44185;47.844;8.966;2023-05-07T11:38:57;6.65;;;3.90;;
58384;SDS011;44185;47.844;8.966;2023-05-07T11:41:22;5.82;;;3.53;;
58384;SDS011;44185;47.844;8.966;2023-05-07T11:43:57;7.20;;;3.60;;
58384;SDS011;44185;47.844;8.966;2023-05-07T11:46:24;4.63;;;3.47;;
58384;SDS011;44185;47.844;8.966;2023-05-07T11:48:51;6.75;;;3.47;;
58384;SDS011;44185;47.844;8.966;2023-05-07T11:51:20;6.07;;;3.50;;
58384;SDS011;44185;47.844;8.966;2023-05-07T11:53:48;3.85;;;3.25;;
58384;SDS011;44185;47.844;8.966;2023-05-07T11:56:14;4.72;;;3.58;;
58384;SDS011;44185;47.844;8.966;2023-05-07T11:58:41;3.88;;;3.30;;
58384;SDS011;44185;47.844;8.966;2023-05-07T12:01:08;7.05;;;3.17;;
58384;SDS011;44185;47.844;8.966;2023-05-07T12:03:34;5.40;;;3.20;;
58384;SDS011;44185;47.844;8.966;2023-05-07T12:06:02;5.88;;;3.03;;
58384;SDS011;44185;47.844;8.966;2023-05-07T12:08:27;4.30;;;3.13;;
58384;SDS011;44185;47.844;8.966;2023-05-07T12:10:53;6.18;;;3.10;;
58384;SDS011;44185;47.844;8.966;2023-05-07T12:13:20;3.60;;;2.53;;
58384;SDS011;44185;47.844;8.966;2023-05-07T12:15:47;4.68;;;3.13;;
58384;SDS011;44185;47.844;8.966;2023-05-07T12:18:15;3.40;;;3.10;;
58384;SDS011;44185;47.844;8.966;2023-05-07T12:20:41;4.15;;;3.20;;
58384;SDS011;44185;47.844;8.966;2023-05-07T12:23:08;4.30;;;3.05;;
58384;SDS011;44185;47.844;8.966;2023-05-07T12:25:34;4.03;;;3.33;;
58384;SDS011;44185;47.844;8.966;2023-05-07T12:28:00;3.55;;;3.10;;
58384;SDS011;44185;47.844;8.966;2023-05-07T12:30:25;4.20;;;3.40;;
58384;SDS011;44185;47.844;8.966;2023-05-07T12:32:52;5.47;;;3.00;;
58384;SDS011;44185;47.844;8.966;2023-05-07T12:35:25;4.00;;;3.15;;
58384;SDS011;44185;47.844;8.966;2023-05-07T12:37:54;5.57;;;3.20;;
58384;SDS011;44185;47.844;8.966;2023-05-07T12:40:21;4.45;;;2.90;;
58384;SDS011;44185;47.844;8.966;2023-05-07T12:42:47;3.80;;;3.30;;
58384;SDS011;44185;47.844;8.966;2023-05-07T12:45:18;6.35;;;3.63;;
58384;SDS011;44185;47.844;8.966;2023-05-07T12:47:43;4.60;;;3.45;;
58384;SDS011;44185;47.844;8.966;2023-05-07T12:50:09;5.88;;;3.38;;
58384;SDS011;44185;47.844;8.966;2023-05-07T12:52:34;3.83;;;3.42;;
58384;SDS011;44185;47.844;8.966;2023-05-07T12:55:04;4.10;;;3.35;;
58384;SDS011;44185;47.844;8.966;2023-05-07T12:57:31;7.05;;;3.60;;
58384;SDS011;44185;47.844;8.966;2023-05-07T13:00:03;5.72;;;3.30;;
58384;SDS011;44185;47.844;8.966;2023-05-07T13:02:31;5.75;;;3.90;;
58384;SDS011;44185;47.844;8.966;2023-05-07T13:04:57;6.00;;;3.50;;
58384;SDS011;44185;47.844;8.966;2023-05-07T13:07:24;5.87;;;3.50;;
58384;SDS011;44185;47.844;8.966;2023-05-07T13:09:49;4.35;;;3.40;;
58384;SDS011;44185;47.844;8.966;2023-05-07T13:12:15;6.82;;;3.20;;
58384;SDS011;44185;47.844;8.966;2023-05-07T13:14:42;4.05;;;2.20;;
58384;SDS011;44185;47.844;8.966;2023-05-07T13:17:07;3.78;;;2.30;;
58384;SDS011;44185;47.844;8.966;2023-05-07T13:19:32;2.13;;;2.00;;
58384;SDS011;44185;47.844;8.966;2023-05-07T13:21:58;2.35;;;2.05;;
58384;SDS011;44185;47.844;8.966;2023-05-07T13:24:23;2.53;;;2.10;;
58384;SDS011;44185;47.844;8.966;2023-05-07T13:26:49;3.80;;;2.30;;
58384;SDS011;44185;47.844;8.966;2023-05-07T13:29:14;2.60;;;2.40;;
58384;SDS011;44185;47.844;8.966;2023-05-07T13:31:41;4.72;;;2.70;;
58384;SDS011;44185;47.844;8.966;2023-05-07T13:34:06;2.80;;;2.15;;
58384;SDS011;44185;47.844;8.966;2023-05-07T13:36:32;2.23;;;2.03;;
58384;SDS011;44185;47.844;8.966;2023-05-07T13:38:57;3.47;;;2.42;;
58384;SDS011;44185;47.844;8.966;2023-05-07T13:41:22;6.68;;;2.33;;
58384;SDS011;44185;47.844;8.966;2023-05-07T13:43:48;3.33;;;2.20;;
58384;SDS011;44185;47.844;8.966;2023-05-07T13:46:13;4.60;;;2.38;;
58384;SDS011;44185;47.844;8.966;2023-05-07T13:48:40;2.10;;;2.00;;
58384;SDS011;44185;47.844;8.966;2023-05-07T13:51:06;2.90;;;1.98;;
58384;SDS011;44185;47.844;8.966;2023-05-07T13:53:32;2.05;;;1.73;;
58384;SDS011;44185;47.844;8.966;2023-05-07T13:55:57;4.68;;;1.90;;
58384;SDS011;44185;47.844;8.966;2023-05-07T13:58:22;1.98;;;1.83;;
58384;SDS011;44185;47.844;8.966;2023-05-07T14:00:48;2.20;;;2.00;;
58384;SDS011;44185;47.844;8.966;2023-05-07T14:03:13;2.22;;;2.13;;
58384;SDS011;44185;47.844;8.966;2023-05-07T14:05:40;2.45;;;2.25;;
58384;SDS011;44185;47.844;8.966;2023-05-07T14:08:05;2.60;;;2.40;;
58384;SDS011;44185;47.844;8.966;2023-05-07T14:10:32;4.00;;;2.30;;
58384;SDS011;44185;47.844;8.966;2023-05-07T14:12:57;2.90;;;2.08;;
58384;SDS011;44185;47.844;8.966;2023-05-07T14:15:22;2.15;;;1.95;;
58384;SDS011;44185;47.844;8.966;2023-05-07T14:17:48;3.15;;;2.38;;
58384;SDS011;44185;47.844;8.966;2023-05-07T14:20:13;3.22;;;2.30;;
58384;SDS011;44185;47.844;8.966;2023-05-07T14:22:40;2.60;;;2.40;;
58384;SDS011;44185;47.844;8.966;2023-05-07T14:25:06;3.35;;;2.60;;
58384;SDS011;44185;47.844;8.966;2023-05-07T14:27:32;2.35;;;2.15;;
58384;SDS011;44185;47.844;8.966;2023-05-07T14:29:58;2.67;;;2.37;;
58384;SDS011;44185;47.844;8.966;2023-05-07T14:32:23;3.85;;;2.63;;
58384;SDS011;44185;47.844;8.966;2023-05-07T14:34:49;2.63;;;2.38;;
58384;SDS011;44185;47.844;8.966;2023-05-07T14:37:15;4.38;;;2.60;;
58384;SDS011;44185;47.844;8.966;2023-05-07T14:39:42;3.40;;;2.58;;
58384;SDS011;44185;47.844;8.966;2023-05-07T14:42:07;4.00;;;2.58;;
58384;SDS011;44185;47.844;8.966;2023-05-07T14:44:33;4.78;;;2.63;;
58384;SDS011;44185;47.844;8.966;2023-05-07T14:46:58;4.82;;;2.53;;
58384;SDS011;44185;47.844;8.966;2023-05-07T14:49:23;4.93;;;2.67;;